sensor_id;sensor_type;location;lat;lon;timestamp;P1;durP1;ratioP1;P2;durP2;ratioP2
73251;SDS011;61473;50.834;4.552;2022-07-03T00:00:34;1.08;;;0.60;;
73251;SDS011;61473;50.834;4.552;2022-07-03T00:03:00;2.00;;;1.00;;
73251;SDS011;61473;50.834;4.552;2022-07-03T00:05:26;1.85;;;0.68;;
73251;SDS011;61473;50.834;4.552;2022-07-03T00:07:51;0.73;;;0.73;;
73251;SDS011;61473;50.834;4.552;2022-07-03T00:10:17;1.55;;;0.80;;
73251;SDS011;61473;50.834;4.552;2022-07-03T00:12:43;1.13;;;0.93;;
73251;SDS011;61473;50.834;4.552;2022-07-03T00:15:09;1.17;;;0.90;;
73251;SDS011;61473;50.834;4.552;2022-07-03T00:17:35;1.23;;;0.57;;
73251;SDS011;61473;50.834;4.552;2022-07-03T00:20:01;1.00;;;0.80;;
73251;SDS011;61473;50.834;4.552;2022-07-03T00:22:26;0.75;;;0.57;;
73251;SDS011;61473;50.834;4.552;2022-07-03T00:25:01;0.90;;;0.60;;
73251;SDS011;61473;50.834;4.552;2022-07-03T00:27:28;0.80;;;0.80;;
73251;SDS011;61473;50.834;4.552;2022-07-03T00:29:58;4.50;;;0.60;;
73251;SDS011;61473;50.834;4.552;2022-07-03T00:32:26;1.15;;;0.60;;
73251;SDS011;61473;50.834;4.552;2022-07-03T00:34:53;0.75;;;0.40;;
73251;SDS011;61473;50.834;4.552;2022-07-03T00:37:20;0.95;;;0.63;;
73251;SDS011;61473;50.834;4.552;2022-07-03T00:39:47;1.30;;;0.57;;
73251;SDS011;61473;50.834;4.552;2022-07-03T00:42:14;0.82;;;0.75;;
73251;SDS011;61473;50.834;4.552;2022-07-03T00:44:44;1.48;;;0.80;;
73251;SDS011;61473;50.834;4.552;2022-07-03T00:47:11;1.25;;;0.68;;
73251;SDS011;61473;50.834;4.552;2022-07-03T00:49:38;0.90;;;0.50;;
73251;SDS011;61473;50.834;4.552;2022-07-03T00:52:05;1.17;;;0.60;;
73251;SDS011;61473;50.834;4.552;2022-07-03T00:54:34;0.52;;;0.47;;
73251;SDS011;61473;50.834;4.552;2022-07-03T00:57:01;0.90;;;0.55;;
73251;SDS011;61473;50.834;4.552;2022-07-03T00:59:28;0.85;;;0.68;;
73251;SDS011;61473;50.834;4.552;2022-07-03T01:02:15;1.58;;;0.65;;
73251;SDS011;61473;50.834;4.552;2022-07-03T01:04:52;0.82;;;0.50;;
73251;SDS011;61473;50.834;4.552;2022-07-03T01:10:17;0.60;;;0.50;;
73251;SDS011;61473;50.834;4.552;2022-07-03T01:13:00;2.05;;;0.85;;
73251;SDS011;61473;50.834;4.552;2022-07-03T01:15:36;1.70;;;0.60;;
73251;SDS011;61473;50.834;4.552;2022-07-03T01:21:17;2.78;;;0.90;;
73251;SDS011;61473;50.834;4.552;2022-07-03T01:26:23;0.90;;;0.80;;
73251;SDS011;61473;50.834;4.552;2022-07-03T01:28:51;0.70;;;0.60;;
73251;SDS011;61473;50.834;4.552;2022-07-03T01:31:20;0.60;;;0.38;;
73251;SDS011;61473;50.834;4.552;2022-07-03T01:33:48;0.77;;;0.50;;
73251;SDS011;61473;50.834;4.552;2022-07-03T01:36:15;2.10;;;0.60;;
73251;SDS011;61473;50.834;4.552;2022-07-03T01:38:43;0.50;;;0.50;;
73251;SDS011;61473;50.834;4.552;2022-07-03T01:41:11;1.20;;;0.73;;
73251;SDS011;61473;50.834;4.552;2022-07-03T01:43:52;1.50;;;0.75;;
73251;SDS011;61473;50.834;4.552;2022-07-03T01:46:26;0.90;;;0.50;;
73251;SDS011;61473;50.834;4.552;2022-07-03T01:48:56;0.85;;;0.60;;
73251;SDS011;61473;50.834;4.552;2022-07-03T01:51:23;0.95;;;0.57;;
73251;SDS011;61473;50.834;4.552;2022-07-03T01:53:50;1.23;;;0.55;;
73251;SDS011;61473;50.834;4.552;2022-07-03T01:56:17;0.80;;;0.80;;
73251;SDS011;61473;50.834;4.552;2022-07-03T01:58:44;1.25;;;0.60;;
73251;SDS011;61473;50.834;4.552;2022-07-03T02:01:15;0.60;;;0.60;;
73251;SDS011;61473;50.834;4.552;2022-07-03T02:03:50;0.73;;;0.65;;
73251;SDS011;61473;50.834;4.552;2022-07-03T02:09:08;2.30;;;0.50;;
73251;SDS011;61473;50.834;4.552;2022-07-03T02:11:36;1.10;;;0.45;;
73251;SDS011;61473;50.834;4.552;2022-07-03T02:14:14;0.47;;;0.35;;
73251;SDS011;61473;50.834;4.552;2022-07-03T02:17:02;1.08;;;0.68;;
73251;SDS011;61473;50.834;4.552;2022-07-03T02:22:08;3.13;;;0.70;;
73251;SDS011;61473;50.834;4.552;2022-07-03T02:24:41;0.85;;;0.60;;
73251;SDS011;61473;50.834;4.552;2022-07-03T02:27:12;0.68;;;0.30;;
73251;SDS011;61473;50.834;4.552;2022-07-03T02:29:59;0.52;;;0.50;;
73251;SDS011;61473;50.834;4.552;2022-07-03T02:32:28;0.93;;;0.40;;
73251;SDS011;61473;50.834;4.552;2022-07-03T02:35:00;0.75;;;0.40;;
73251;SDS011;61473;50.834;4.552;2022-07-03T02:37:32;2.60;;;0.68;;
73251;SDS011;61473;50.834;4.552;2022-07-03T02:40:08;0.93;;;0.52;;
73251;SDS011;61473;50.834;4.552;2022-07-03T02:42:43;0.40;;;0.40;;
73251;SDS011;61473;50.834;4.552;2022-07-03T02:45:15;0.73;;;0.50;;
73251;SDS011;61473;50.834;4.552;2022-07-03T02:51:07;0.50;;;0.47;;
73251;SDS011;61473;50.834;4.552;2022-07-03T02:53:46;0.38;;;0.32;;
73251;SDS011;61473;50.834;4.552;2022-07-03T02:56:27;2.60;;;0.80;;
73251;SDS011;61473;50.834;4.552;2022-07-03T03:01:50;5.45;;;0.73;;
73251;SDS011;61473;50.834;4.552;2022-07-03T03:04:28;4.30;;;0.75;;
73251;SDS011;61473;50.834;4.552;2022-07-03T03:07:18;3.78;;;0.98;;
73251;SDS011;61473;50.834;4.552;2022-07-03T03:09:44;1.55;;;0.63;;
73251;SDS011;61473;50.834;4.552;2022-07-03T03:12:12;4.10;;;1.10;;
73251;SDS011;61473;50.834;4.552;2022-07-03T03:14:40;2.90;;;0.80;;
73251;SDS011;61473;50.834;4.552;2022-07-03T03:17:07;5.75;;;0.90;;
73251;SDS011;61473;50.834;4.552;2022-07-03T03:19:36;2.83;;;1.00;;
73251;SDS011;61473;50.834;4.552;2022-07-03T03:22:15;3.50;;;1.38;;
73251;SDS011;61473;50.834;4.552;2022-07-03T03:24:44;2.55;;;0.80;;
73251;SDS011;61473;50.834;4.552;2022-07-03T03:27:10;2.03;;;0.80;;
73251;SDS011;61473;50.834;4.552;2022-07-03T03:29:37;2.55;;;0.70;;
73251;SDS011;61473;50.834;4.552;2022-07-03T03:32:04;1.48;;;0.70;;
73251;SDS011;61473;50.834;4.552;2022-07-03T03:34:31;1.98;;;0.77;;
73251;SDS011;61473;50.834;4.552;2022-07-03T03:36:57;3.15;;;0.70;;
73251;SDS011;61473;50.834;4.552;2022-07-03T03:39:24;3.25;;;0.82;;
73251;SDS011;61473;50.834;4.552;2022-07-03T03:41:50;3.92;;;1.20;;
73251;SDS011;61473;50.834;4.552;2022-07-03T03:44:17;1.73;;;0.65;;
73251;SDS011;61473;50.834;4.552;2022-07-03T03:46:43;2.15;;;1.20;;
73251;SDS011;61473;50.834;4.552;2022-07-03T03:49:09;2.13;;;0.80;;
73251;SDS011;61473;50.834;4.552;2022-07-03T03:51:35;3.78;;;1.17;;
73251;SDS011;61473;50.834;4.552;2022-07-03T03:54:01;2.42;;;0.90;;
73251;SDS011;61473;50.834;4.552;2022-07-03T03:56:28;2.22;;;0.50;;
73251;SDS011;61473;50.834;4.552;2022-07-03T03:58:54;1.48;;;0.57;;
73251;SDS011;61473;50.834;4.552;2022-07-03T04:01:20;1.67;;;0.85;;
73251;SDS011;61473;50.834;4.552;2022-07-03T04:03:45;0.85;;;0.65;;
73251;SDS011;61473;50.834;4.552;2022-07-03T04:06:11;2.55;;;0.80;;
73251;SDS011;61473;50.834;4.552;2022-07-03T04:08:37;0.88;;;0.55;;
73251;SDS011;61473;50.834;4.552;2022-07-03T04:11:02;1.58;;;0.80;;
73251;SDS011;61473;50.834;4.552;2022-07-03T04:13:28;5.65;;;1.27;;
73251;SDS011;61473;50.834;4.552;2022-07-03T04:15:54;4.35;;;0.85;;
73251;SDS011;61473;50.834;4.552;2022-07-03T04:18:20;3.42;;;1.10;;
73251;SDS011;61473;50.834;4.552;2022-07-03T04:20:46;2.53;;;1.00;;
73251;SDS011;61473;50.834;4.552;2022-07-03T04:23:12;2.65;;;0.98;;
73251;SDS011;61473;50.834;4.552;2022-07-03T04:25:38;2.17;;;0.80;;
73251;SDS011;61473;50.834;4.552;2022-07-03T04:28:03;1.63;;;0.68;;
73251;SDS011;61473;50.834;4.552;2022-07-03T04:30:29;2.25;;;0.85;;
73251;SDS011;61473;50.834;4.552;2022-07-03T04:32:55;1.13;;;0.80;;
73251;SDS011;61473;50.834;4.552;2022-07-03T04:35:20;2.25;;;0.90;;
73251;SDS011;61473;50.834;4.552;2022-07-03T04:37:46;2.17;;;0.60;;
73251;SDS011;61473;50.834;4.552;2022-07-03T04:40:12;1.13;;;0.60;;
73251;SDS011;61473;50.834;4.552;2022-07-03T04:42:38;3.08;;;0.95;;
73251;SDS011;61473;50.834;4.552;2022-07-03T04:45:04;1.80;;;1.25;;
73251;SDS011;61473;50.834;4.552;2022-07-03T04:47:30;4.85;;;0.80;;
73251;SDS011;61473;50.834;4.552;2022-07-03T04:49:56;4.05;;;0.80;;
73251;SDS011;61473;50.834;4.552;2022-07-03T04:52:22;3.17;;;0.93;;
73251;SDS011;61473;50.834;4.552;2022-07-03T04:54:48;2.30;;;0.90;;
73251;SDS011;61473;50.834;4.552;2022-07-03T04:57:13;1.67;;;1.00;;
73251;SDS011;61473;50.834;4.552;2022-07-03T04:59:39;2.95;;;1.00;;
73251;SDS011;61473;50.834;4.552;2022-07-03T05:02:05;2.85;;;0.70;;
73251;SDS011;61473;50.834;4.552;2022-07-03T05:04:31;0.80;;;0.63;;
73251;SDS011;61473;50.834;4.552;2022-07-03T05:06:57;1.17;;;0.52;;
73251;SDS011;61473;50.834;4.552;2022-07-03T05:09:22;1.40;;;0.90;;
73251;SDS011;61473;50.834;4.552;2022-07-03T05:11:48;2.85;;;0.85;;
73251;SDS011;61473;50.834;4.552;2022-07-03T05:14:14;3.47;;;1.00;;
73251;SDS011;61473;50.834;4.552;2022-07-03T05:16:40;2.03;;;0.60;;
73251;SDS011;61473;50.834;4.552;2022-07-03T05:19:05;2.88;;;0.70;;
73251;SDS011;61473;50.834;4.552;2022-07-03T05:21:31;0.95;;;0.73;;
73251;SDS011;61473;50.834;4.552;2022-07-03T05:23:57;1.23;;;0.75;;
73251;SDS011;61473;50.834;4.552;2022-07-03T05:26:23;1.67;;;0.60;;
73251;SDS011;61473;50.834;4.552;2022-07-03T05:28:48;1.50;;;0.52;;
73251;SDS011;61473;50.834;4.552;2022-07-03T05:31:14;3.90;;;0.70;;
73251;SDS011;61473;50.834;4.552;2022-07-03T05:33:40;3.35;;;0.75;;
73251;SDS011;61473;50.834;4.552;2022-07-03T05:36:06;3.80;;;1.13;;
73251;SDS011;61473;50.834;4.552;2022-07-03T05:38:32;1.83;;;1.00;;
73251;SDS011;61473;50.834;4.552;2022-07-03T05:41:16;1.85;;;0.73;;
73251;SDS011;61473;50.834;4.552;2022-07-03T05:43:42;1.73;;;0.70;;
73251;SDS011;61473;50.834;4.552;2022-07-03T05:46:08;2.17;;;0.88;;
73251;SDS011;61473;50.834;4.552;2022-07-03T05:48:33;3.55;;;1.27;;
73251;SDS011;61473;50.834;4.552;2022-07-03T05:50:59;1.15;;;0.57;;
73251;SDS011;61473;50.834;4.552;2022-07-03T05:53:25;1.80;;;0.93;;
73251;SDS011;61473;50.834;4.552;2022-07-03T05:55:51;2.22;;;1.13;;
73251;SDS011;61473;50.834;4.552;2022-07-03T05:58:16;3.45;;;1.20;;
73251;SDS011;61473;50.834;4.552;2022-07-03T06:00:42;1.08;;;0.80;;
73251;SDS011;61473;50.834;4.552;2022-07-03T06:03:08;3.97;;;1.15;;
73251;SDS011;61473;50.834;4.552;2022-07-03T06:05:34;4.38;;;0.68;;
73251;SDS011;61473;50.834;4.552;2022-07-03T06:08:00;3.00;;;1.10;;
73251;SDS011;61473;50.834;4.552;2022-07-03T06:10:26;1.52;;;0.90;;
73251;SDS011;61473;50.834;4.552;2022-07-03T06:12:53;1.65;;;0.82;;
73251;SDS011;61473;50.834;4.552;2022-07-03T06:15:18;1.88;;;1.05;;
73251;SDS011;61473;50.834;4.552;2022-07-03T06:17:44;2.60;;;1.45;;
73251;SDS011;61473;50.834;4.552;2022-07-03T06:20:10;3.67;;;0.98;;
73251;SDS011;61473;50.834;4.552;2022-07-03T06:22:37;2.65;;;0.90;;
73251;SDS011;61473;50.834;4.552;2022-07-03T06:25:04;3.83;;;1.05;;
73251;SDS011;61473;50.834;4.552;2022-07-03T06:27:30;1.98;;;0.60;;
73251;SDS011;61473;50.834;4.552;2022-07-03T06:29:56;2.83;;;0.75;;
73251;SDS011;61473;50.834;4.552;2022-07-03T06:32:22;3.17;;;0.55;;
73251;SDS011;61473;50.834;4.552;2022-07-03T06:34:47;2.90;;;1.42;;
73251;SDS011;61473;50.834;4.552;2022-07-03T06:37:13;1.60;;;0.70;;
73251;SDS011;61473;50.834;4.552;2022-07-03T06:39:39;1.95;;;0.90;;
73251;SDS011;61473;50.834;4.552;2022-07-03T06:42:05;2.53;;;0.88;;
73251;SDS011;61473;50.834;4.552;2022-07-03T06:44:31;1.65;;;0.90;;
73251;SDS011;61473;50.834;4.552;2022-07-03T06:46:58;5.53;;;2.22;;
73251;SDS011;61473;50.834;4.552;2022-07-03T06:49:28;3.05;;;1.20;;
73251;SDS011;61473;50.834;4.552;2022-07-03T06:51:54;5.20;;;0.88;;
73251;SDS011;61473;50.834;4.552;2022-07-03T06:54:20;3.03;;;1.27;;
73251;SDS011;61473;50.834;4.552;2022-07-03T06:56:46;3.38;;;1.05;;
73251;SDS011;61473;50.834;4.552;2022-07-03T06:59:11;5.85;;;0.95;;
73251;SDS011;61473;50.834;4.552;2022-07-03T07:01:37;3.83;;;0.90;;
73251;SDS011;61473;50.834;4.552;2022-07-03T07:04:03;2.53;;;0.60;;
73251;SDS011;61473;50.834;4.552;2022-07-03T07:06:29;2.50;;;0.85;;
73251;SDS011;61473;50.834;4.552;2022-07-03T07:08:54;3.08;;;1.33;;
73251;SDS011;61473;50.834;4.552;2022-07-03T07:11:20;1.83;;;0.57;;
73251;SDS011;61473;50.834;4.552;2022-07-03T07:13:46;2.63;;;0.80;;
73251;SDS011;61473;50.834;4.552;2022-07-03T07:16:12;2.90;;;0.88;;
73251;SDS011;61473;50.834;4.552;2022-07-03T07:18:41;4.18;;;0.90;;
73251;SDS011;61473;50.834;4.552;2022-07-03T07:21:07;4.88;;;1.10;;
73251;SDS011;61473;50.834;4.552;2022-07-03T07:23:33;1.85;;;0.98;;
73251;SDS011;61473;50.834;4.552;2022-07-03T07:25:59;2.75;;;1.05;;
73251;SDS011;61473;50.834;4.552;2022-07-03T07:28:25;1.90;;;0.73;;
73251;SDS011;61473;50.834;4.552;2022-07-03T07:30:50;1.65;;;0.70;;
73251;SDS011;61473;50.834;4.552;2022-07-03T07:33:20;2.20;;;0.77;;
73251;SDS011;61473;50.834;4.552;2022-07-03T07:35:46;2.47;;;0.50;;
73251;SDS011;61473;50.834;4.552;2022-07-03T07:38:12;1.88;;;0.80;;
73251;SDS011;61473;50.834;4.552;2022-07-03T07:40:38;1.10;;;0.50;;
73251;SDS011;61473;50.834;4.552;2022-07-03T07:43:04;4.90;;;0.93;;
73251;SDS011;61473;50.834;4.552;2022-07-03T07:45:29;3.67;;;1.20;;
73251;SDS011;61473;50.834;4.552;2022-07-03T07:47:55;3.03;;;0.80;;
73251;SDS011;61473;50.834;4.552;2022-07-03T07:50:20;2.65;;;0.60;;
73251;SDS011;61473;50.834;4.552;2022-07-03T07:52:46;2.90;;;1.30;;
73251;SDS011;61473;50.834;4.552;2022-07-03T07:55:12;3.47;;;1.30;;
73251;SDS011;61473;50.834;4.552;2022-07-03T07:57:38;4.20;;;0.90;;
73251;SDS011;61473;50.834;4.552;2022-07-03T08:00:09;2.60;;;0.70;;
73251;SDS011;61473;50.834;4.552;2022-07-03T08:02:36;5.20;;;0.93;;
73251;SDS011;61473;50.834;4.552;2022-07-03T08:05:21;2.05;;;0.80;;
73251;SDS011;61473;50.834;4.552;2022-07-03T08:10:45;3.28;;;1.38;;
73251;SDS011;61473;50.834;4.552;2022-07-03T08:13:12;3.25;;;1.00;;
73251;SDS011;61473;50.834;4.552;2022-07-03T08:15:40;7.20;;;1.15;;
73251;SDS011;61473;50.834;4.552;2022-07-03T08:18:06;2.67;;;1.15;;
73251;SDS011;61473;50.834;4.552;2022-07-03T08:20:32;3.58;;;1.10;;
73251;SDS011;61473;50.834;4.552;2022-07-03T08:22:59;2.35;;;1.00;;
73251;SDS011;61473;50.834;4.552;2022-07-03T08:25:26;4.72;;;0.85;;
73251;SDS011;61473;50.834;4.552;2022-07-03T08:27:52;1.67;;;0.70;;
73251;SDS011;61473;50.834;4.552;2022-07-03T08:30:18;2.40;;;0.82;;
73251;SDS011;61473;50.834;4.552;2022-07-03T08:32:48;4.13;;;1.10;;
73251;SDS011;61473;50.834;4.552;2022-07-03T08:35:15;6.82;;;1.35;;
73251;SDS011;61473;50.834;4.552;2022-07-03T08:37:41;11.30;;;1.00;;
73251;SDS011;61473;50.834;4.552;2022-07-03T08:40:11;4.05;;;1.20;;
73251;SDS011;61473;50.834;4.552;2022-07-03T08:42:38;4.18;;;1.35;;
73251;SDS011;61473;50.834;4.552;2022-07-03T08:45:11;1.13;;;0.80;;
73251;SDS011;61473;50.834;4.552;2022-07-03T08:47:40;2.80;;;0.95;;
73251;SDS011;61473;50.834;4.552;2022-07-03T08:50:07;5.97;;;1.45;;
73251;SDS011;61473;50.834;4.552;2022-07-03T08:52:34;36.80;;;18.90;;
73251;SDS011;61473;50.834;4.552;2022-07-03T08:55:01;30.15;;;17.67;;
73251;SDS011;61473;50.834;4.552;2022-07-03T08:57:31;33.65;;;18.70;;
73251;SDS011;61473;50.834;4.552;2022-07-03T09:00:04;38.28;;;16.60;;
73251;SDS011;61473;50.834;4.552;2022-07-03T09:02:32;59.50;;;31.58;;
73251;SDS011;61473;50.834;4.552;2022-07-03T09:04:59;63.20;;;29.42;;
73251;SDS011;61473;50.834;4.552;2022-07-03T09:07:27;26.23;;;13.57;;
73251;SDS011;61473;50.834;4.552;2022-07-03T09:09:56;19.45;;;10.45;;
73251;SDS011;61473;50.834;4.552;2022-07-03T09:12:22;30.52;;;14.25;;
73251;SDS011;61473;50.834;4.552;2022-07-03T09:14:47;15.93;;;8.43;;
73251;SDS011;61473;50.834;4.552;2022-07-03T09:17:13;18.15;;;8.23;;
73251;SDS011;61473;50.834;4.552;2022-07-03T09:19:41;11.45;;;5.40;;
73251;SDS011;61473;50.834;4.552;2022-07-03T09:24:44;11.52;;;3.03;;
73251;SDS011;61473;50.834;4.552;2022-07-03T09:27:10;6.68;;;2.50;;
73251;SDS011;61473;50.834;4.552;2022-07-03T09:32:32;2.55;;;1.60;;
73251;SDS011;61473;50.834;4.552;2022-07-03T09:40:20;7.35;;;1.27;;
73251;SDS011;61473;50.834;4.552;2022-07-03T09:43:06;9.18;;;2.33;;
73251;SDS011;61473;50.834;4.552;2022-07-03T09:45:48;8.15;;;2.45;;
73251;SDS011;61473;50.834;4.552;2022-07-03T09:50:47;10.32;;;2.95;;
73251;SDS011;61473;50.834;4.552;2022-07-03T09:53:13;19.55;;;3.72;;
73251;SDS011;61473;50.834;4.552;2022-07-03T09:55:38;26.40;;;3.33;;
73251;SDS011;61473;50.834;4.552;2022-07-03T09:58:04;9.48;;;2.00;;
73251;SDS011;61473;50.834;4.552;2022-07-03T10:00:33;10.77;;;1.73;;
73251;SDS011;61473;50.834;4.552;2022-07-03T10:03:07;4.60;;;1.20;;
73251;SDS011;61473;50.834;4.552;2022-07-03T10:05:35;16.90;;;1.77;;
73251;SDS011;61473;50.834;4.552;2022-07-03T10:10:30;9.85;;;1.60;;
73251;SDS011;61473;50.834;4.552;2022-07-03T10:12:58;11.38;;;1.60;;
73251;SDS011;61473;50.834;4.552;2022-07-03T10:15:24;12.60;;;2.00;;
73251;SDS011;61473;50.834;4.552;2022-07-03T10:17:54;11.25;;;2.97;;
73251;SDS011;61473;50.834;4.552;2022-07-03T10:20:25;7.63;;;2.30;;
73251;SDS011;61473;50.834;4.552;2022-07-03T10:23:00;12.70;;;2.33;;
73251;SDS011;61473;50.834;4.552;2022-07-03T10:25:27;12.60;;;2.20;;
73251;SDS011;61473;50.834;4.552;2022-07-03T10:27:53;8.18;;;1.63;;
73251;SDS011;61473;50.834;4.552;2022-07-03T10:30:20;3.58;;;1.38;;
73251;SDS011;61473;50.834;4.552;2022-07-03T10:32:47;7.18;;;0.70;;
73251;SDS011;61473;50.834;4.552;2022-07-03T10:35:15;8.65;;;1.30;;
73251;SDS011;61473;50.834;4.552;2022-07-03T10:38:35;13.15;;;1.40;;
73251;SDS011;61473;50.834;4.552;2022-07-03T10:43:52;5.40;;;1.02;;
73251;SDS011;61473;50.834;4.552;2022-07-03T10:46:37;3.75;;;0.75;;
73251;SDS011;61473;50.834;4.552;2022-07-03T10:57:07;0.93;;;0.52;;
73251;SDS011;61473;50.834;4.552;2022-07-03T11:07:24;6.22;;;0.85;;
73251;SDS011;61473;50.834;4.552;2022-07-03T11:15:24;4.43;;;0.68;;
73251;SDS011;61473;50.834;4.552;2022-07-03T11:25:46;1.25;;;0.50;;
73251;SDS011;61473;50.834;4.552;2022-07-03T11:38:42;1.17;;;0.57;;
73251;SDS011;61473;50.834;4.552;2022-07-03T11:41:09;1.73;;;0.70;;
73251;SDS011;61473;50.834;4.552;2022-07-03T11:43:36;1.35;;;0.57;;
73251;SDS011;61473;50.834;4.552;2022-07-03T11:46:03;3.30;;;0.88;;
73251;SDS011;61473;50.834;4.552;2022-07-03T11:48:30;1.95;;;0.63;;
73251;SDS011;61473;50.834;4.552;2022-07-03T11:51:03;2.25;;;0.70;;
73251;SDS011;61473;50.834;4.552;2022-07-03T11:53:32;2.00;;;0.70;;
73251;SDS011;61473;50.834;4.552;2022-07-03T11:58:39;4.63;;;0.82;;
73251;SDS011;61473;50.834;4.552;2022-07-03T12:06:12;3.22;;;0.90;;
73251;SDS011;61473;50.834;4.552;2022-07-03T12:08:38;1.98;;;0.63;;
73251;SDS011;61473;50.834;4.552;2022-07-03T12:11:11;2.30;;;0.70;;
73251;SDS011;61473;50.834;4.552;2022-07-03T12:13:42;1.67;;;0.40;;
73251;SDS011;61473;50.834;4.552;2022-07-03T12:16:12;1.70;;;0.45;;
73251;SDS011;61473;50.834;4.552;2022-07-03T12:21:07;1.02;;;0.40;;
73251;SDS011;61473;50.834;4.552;2022-07-03T12:23:40;3.38;;;0.63;;
73251;SDS011;61473;50.834;4.552;2022-07-03T12:26:07;1.75;;;0.52;;
73251;SDS011;61473;50.834;4.552;2022-07-03T12:28:33;1.67;;;0.45;;
73251;SDS011;61473;50.834;4.552;2022-07-03T12:30:59;1.02;;;0.30;;
73251;SDS011;61473;50.834;4.552;2022-07-03T12:33:24;2.15;;;0.60;;
73251;SDS011;61473;50.834;4.552;2022-07-03T12:36:06;3.15;;;0.52;;
73251;SDS011;61473;50.834;4.552;2022-07-03T12:38:33;1.75;;;0.50;;
73251;SDS011;61473;50.834;4.552;2022-07-03T12:41:02;1.05;;;0.40;;
73251;SDS011;61473;50.834;4.552;2022-07-03T12:43:35;4.57;;;1.15;;
73251;SDS011;61473;50.834;4.552;2022-07-03T12:46:02;2.65;;;0.60;;
73251;SDS011;61473;50.834;4.552;2022-07-03T12:48:28;2.95;;;0.73;;
73251;SDS011;61473;50.834;4.552;2022-07-03T12:50:54;3.28;;;0.55;;
73251;SDS011;61473;50.834;4.552;2022-07-03T12:53:30;3.72;;;1.13;;
73251;SDS011;61473;50.834;4.552;2022-07-03T12:56:00;2.28;;;0.60;;
73251;SDS011;61473;50.834;4.552;2022-07-03T12:58:28;1.42;;;0.52;;
73251;SDS011;61473;50.834;4.552;2022-07-03T13:03:50;1.55;;;0.40;;
73251;SDS011;61473;50.834;4.552;2022-07-03T13:06:16;2.50;;;0.73;;
73251;SDS011;61473;50.834;4.552;2022-07-03T13:08:55;1.67;;;0.60;;
73251;SDS011;61473;50.834;4.552;2022-07-03T13:14:12;2.28;;;0.80;;
73251;SDS011;61473;50.834;4.552;2022-07-03T13:19:10;1.15;;;0.40;;
73251;SDS011;61473;50.834;4.552;2022-07-03T13:21:38;1.65;;;0.35;;
73251;SDS011;61473;50.834;4.552;2022-07-03T13:24:04;1.45;;;0.50;;
73251;SDS011;61473;50.834;4.552;2022-07-03T13:26:31;2.75;;;0.40;;
73251;SDS011;61473;50.834;4.552;2022-07-03T13:28:57;2.85;;;0.63;;
73251;SDS011;61473;50.834;4.552;2022-07-03T13:31:23;3.58;;;0.75;;
73251;SDS011;61473;50.834;4.552;2022-07-03T13:33:49;2.60;;;0.50;;
73251;SDS011;61473;50.834;4.552;2022-07-03T13:36:14;2.83;;;0.65;;
73251;SDS011;61473;50.834;4.552;2022-07-03T13:38:42;1.85;;;0.50;;
73251;SDS011;61473;50.834;4.552;2022-07-03T13:41:08;3.65;;;0.52;;
73251;SDS011;61473;50.834;4.552;2022-07-03T13:43:34;3.17;;;0.75;;
73251;SDS011;61473;50.834;4.552;2022-07-03T13:45:59;1.15;;;0.50;;
73251;SDS011;61473;50.834;4.552;2022-07-03T13:48:25;5.22;;;0.95;;
73251;SDS011;61473;50.834;4.552;2022-07-03T13:50:50;1.85;;;0.45;;
73251;SDS011;61473;50.834;4.552;2022-07-03T13:53:16;0.90;;;0.38;;
73251;SDS011;61473;50.834;4.552;2022-07-03T13:55:42;4.18;;;0.50;;
73251;SDS011;61473;50.834;4.552;2022-07-03T13:58:07;2.80;;;0.65;;
73251;SDS011;61473;50.834;4.552;2022-07-03T14:00:33;1.15;;;0.55;;
73251;SDS011;61473;50.834;4.552;2022-07-03T14:02:59;0.95;;;0.57;;
73251;SDS011;61473;50.834;4.552;2022-07-03T14:05:26;8.88;;;0.90;;
73251;SDS011;61473;50.834;4.552;2022-07-03T14:07:51;3.85;;;0.70;;
73251;SDS011;61473;50.834;4.552;2022-07-03T14:10:18;3.38;;;0.88;;
73251;SDS011;61473;50.834;4.552;2022-07-03T14:12:45;2.10;;;0.45;;
73251;SDS011;61473;50.834;4.552;2022-07-03T14:15:11;23.58;;;6.60;;
73251;SDS011;61473;50.834;4.552;2022-07-03T14:17:37;16.42;;;4.65;;
73251;SDS011;61473;50.834;4.552;2022-07-03T14:20:02;27.15;;;6.93;;
73251;SDS011;61473;50.834;4.552;2022-07-03T14:22:28;20.67;;;5.65;;
73251;SDS011;61473;50.834;4.552;2022-07-03T14:24:54;6.35;;;2.25;;
73251;SDS011;61473;50.834;4.552;2022-07-03T14:27:20;8.68;;;3.10;;
73251;SDS011;61473;50.834;4.552;2022-07-03T14:30:04;7.43;;;2.00;;
73251;SDS011;61473;50.834;4.552;2022-07-03T14:32:49;6.85;;;1.80;;
73251;SDS011;61473;50.834;4.552;2022-07-03T14:35:14;7.13;;;1.35;;
73251;SDS011;61473;50.834;4.552;2022-07-03T14:37:40;4.68;;;1.52;;
73251;SDS011;61473;50.834;4.552;2022-07-03T14:40:06;2.92;;;0.90;;
73251;SDS011;61473;50.834;4.552;2022-07-03T14:42:32;3.45;;;1.40;;
73251;SDS011;61473;50.834;4.552;2022-07-03T14:44:57;2.92;;;0.85;;
73251;SDS011;61473;50.834;4.552;2022-07-03T14:47:23;2.17;;;0.75;;
73251;SDS011;61473;50.834;4.552;2022-07-03T14:49:48;2.28;;;0.65;;
73251;SDS011;61473;50.834;4.552;2022-07-03T14:52:14;1.75;;;0.70;;
73251;SDS011;61473;50.834;4.552;2022-07-03T14:54:40;4.70;;;0.75;;
73251;SDS011;61473;50.834;4.552;2022-07-03T14:57:13;3.42;;;0.82;;
73251;SDS011;61473;50.834;4.552;2022-07-03T15:00:02;2.50;;;0.70;;
73251;SDS011;61473;50.834;4.552;2022-07-03T15:05:09;1.02;;;0.60;;
73251;SDS011;61473;50.834;4.552;2022-07-03T15:07:38;2.72;;;0.90;;
73251;SDS011;61473;50.834;4.552;2022-07-03T15:10:09;1.38;;;0.75;;
73251;SDS011;61473;50.834;4.552;2022-07-03T15:12:50;2.35;;;0.60;;
73251;SDS011;61473;50.834;4.552;2022-07-03T15:15:18;0.77;;;0.50;;
73251;SDS011;61473;50.834;4.552;2022-07-03T15:17:46;4.88;;;0.60;;
73251;SDS011;61473;50.834;4.552;2022-07-03T15:20:17;1.50;;;0.60;;
73251;SDS011;61473;50.834;4.552;2022-07-03T15:22:44;4.70;;;0.75;;
73251;SDS011;61473;50.834;4.552;2022-07-03T15:25:12;8.10;;;1.40;;
73251;SDS011;61473;50.834;4.552;2022-07-03T15:27:41;14.50;;;2.05;;
73251;SDS011;61473;50.834;4.552;2022-07-03T15:30:07;4.95;;;1.00;;
73251;SDS011;61473;50.834;4.552;2022-07-03T15:32:35;2.70;;;0.52;;
73251;SDS011;61473;50.834;4.552;2022-07-03T15:35:02;2.58;;;0.73;;
73251;SDS011;61473;50.834;4.552;2022-07-03T15:37:45;3.03;;;0.80;;
73251;SDS011;61473;50.834;4.552;2022-07-03T15:51:44;4.53;;;0.80;;
73251;SDS011;61473;50.834;4.552;2022-07-03T15:54:28;3.55;;;0.73;;
73251;SDS011;61473;50.834;4.552;2022-07-03T15:57:02;2.97;;;0.70;;
73251;SDS011;61473;50.834;4.552;2022-07-03T15:59:34;2.50;;;0.93;;
73251;SDS011;61473;50.834;4.552;2022-07-03T16:02:04;3.10;;;0.70;;
73251;SDS011;61473;50.834;4.552;2022-07-03T16:07:28;2.72;;;0.60;;
73251;SDS011;61473;50.834;4.552;2022-07-03T16:09:58;3.15;;;0.73;;
73251;SDS011;61473;50.834;4.552;2022-07-03T16:12:24;19.80;;;2.53;;
73251;SDS011;61473;50.834;4.552;2022-07-03T16:14:51;8.25;;;1.65;;
73251;SDS011;61473;50.834;4.552;2022-07-03T16:17:17;7.72;;;0.98;;
73251;SDS011;61473;50.834;4.552;2022-07-03T16:19:46;9.70;;;1.70;;
73251;SDS011;61473;50.834;4.552;2022-07-03T16:22:12;4.60;;;1.10;;
73251;SDS011;61473;50.834;4.552;2022-07-03T16:24:39;5.13;;;1.10;;
73251;SDS011;61473;50.834;4.552;2022-07-03T16:27:06;5.88;;;1.27;;
73251;SDS011;61473;50.834;4.552;2022-07-03T16:29:37;3.10;;;1.15;;
73251;SDS011;61473;50.834;4.552;2022-07-03T16:32:02;3.47;;;1.50;;
73251;SDS011;61473;50.834;4.552;2022-07-03T16:37:25;2.72;;;0.80;;
73251;SDS011;61473;50.834;4.552;2022-07-03T16:40:12;3.03;;;0.80;;
73251;SDS011;61473;50.834;4.552;2022-07-03T16:42:40;3.67;;;1.10;;
73251;SDS011;61473;50.834;4.552;2022-07-03T16:45:08;9.40;;;3.92;;
73251;SDS011;61473;50.834;4.552;2022-07-03T16:47:43;5.07;;;2.00;;
73251;SDS011;61473;50.834;4.552;2022-07-03T16:50:12;4.35;;;2.20;;
73251;SDS011;61473;50.834;4.552;2022-07-03T16:52:49;4.78;;;1.98;;